sensor_id;sensor_type;location;lat;lon;timestamp;P1;durP1;ratioP1;P2;durP2;ratioP2
39620;SDS011;25309;48.686;9.170;2023-04-09T03:01:42;12.17;;;9.50;;
39620;SDS011;25309;48.686;9.170;2023-04-09T03:04:09;12.30;;;10.33;;
39620;SDS011;25309;48.686;9.170;2023-04-09T03:06:36;12.53;;;10.60;;
39620;SDS011;25309;48.686;9.170;2023-04-09T03:09:03;13.10;;;10.90;;
39620;SDS011;25309;48.686;9.170;2023-04-09T03:11:30;14.53;;;10.40;;
39620;SDS011;25309;48.686;9.170;2023-04-09T03:13:57;12.87;;;10.73;;
39620;SDS011;25309;48.686;9.170;2023-04-09T03:16:24;14.07;;;11.00;;
39620;SDS011;25309;48.686;9.170;2023-04-09T03:18:53;14.50;;;10.60;;
39620;SDS011;25309;48.686;9.170;2023-04-09T03:21:20;14.10;;;11.17;;
39620;SDS011;25309;48.686;9.170;2023-04-09T03:23:48;13.00;;;9.93;;
39620;SDS011;25309;48.686;9.170;2023-04-09T03:26:15;13.23;;;10.63;;
39620;SDS011;25309;48.686;9.170;2023-04-09T03:28:46;15.03;;;10.87;;
39620;SDS011;25309;48.686;9.170;2023-04-09T03:31:13;13.83;;;10.87;;
39620;SDS011;25309;48.686;9.170;2023-04-09T03:33:41;13.83;;;10.50;;
39620;SDS011;25309;48.686;9.170;2023-04-09T03:36:11;14.47;;;11.53;;
39620;SDS011;25309;48.686;9.170;2023-04-09T03:38:56;14.90;;;11.30;;
39620;SDS011;25309;48.686;9.170;2023-04-09T03:41:28;13.83;;;10.40;;
39620;SDS011;25309;48.686;9.170;2023-04-09T03:43:58;13.30;;;10.97;;
39620;SDS011;25309;48.686;9.170;2023-04-09T03:46:30;12.47;;;9.73;;
39620;SDS011;25309;48.686;9.170;2023-04-09T03:48:58;14.43;;;11.33;;
39620;SDS011;25309;48.686;9.170;2023-04-09T03:51:36;13.97;;;11.40;;
39620;SDS011;25309;48.686;9.170;2023-04-09T03:54:03;14.20;;;11.50;;
39620;SDS011;25309;48.686;9.170;2023-04-09T03:56:30;13.97;;;11.27;;
39620;SDS011;25309;48.686;9.170;2023-04-09T03:58:57;13.57;;;11.17;;
39620;SDS011;25309;48.686;9.170;2023-04-09T04:01:33;13.93;;;11.00;;
39620;SDS011;25309;48.686;9.170;2023-04-09T04:04:00;13.77;;;11.07;;
39620;SDS011;25309;48.686;9.170;2023-04-09T04:06:42;15.20;;;11.73;;
39620;SDS011;25309;48.686;9.170;2023-04-09T04:09:28;13.90;;;10.87;;
39620;SDS011;25309;48.686;9.170;2023-04-09T04:12:00;15.33;;;10.87;;
39620;SDS011;25309;48.686;9.170;2023-04-09T04:14:44;13.30;;;11.10;;
39620;SDS011;25309;48.686;9.170;2023-04-09T04:17:20;13.23;;;10.80;;
39620;SDS011;25309;48.686;9.170;2023-04-09T04:19:49;14.23;;;10.83;;
39620;SDS011;25309;48.686;9.170;2023-04-09T04:22:17;13.40;;;10.07;;
39620;SDS011;25309;48.686;9.170;2023-04-09T04:24:47;13.27;;;10.90;;
39620;SDS011;25309;48.686;9.170;2023-04-09T04:27:18;12.70;;;10.63;;
39620;SDS011;25309;48.686;9.170;2023-04-09T04:29:45;13.43;;;10.90;;
39620;SDS011;25309;48.686;9.170;2023-04-09T04:32:22;13.17;;;10.70;;
39620;SDS011;25309;48.686;9.170;2023-04-09T04:34:50;13.03;;;10.70;;
39620;SDS011;25309;48.686;9.170;2023-04-09T04:37:23;13.00;;;10.27;;
39620;SDS011;25309;48.686;9.170;2023-04-09T04:39:54;12.70;;;10.87;;
39620;SDS011;25309;48.686;9.170;2023-04-09T04:42:21;15.33;;;11.20;;
39620;SDS011;25309;48.686;9.170;2023-04-09T04:44:48;14.67;;;11.60;;
39620;SDS011;25309;48.686;9.170;2023-04-09T04:47:39;13.13;;;10.53;;
39620;SDS011;25309;48.686;9.170;2023-04-09T04:50:06;13.70;;;11.10;;
39620;SDS011;25309;48.686;9.170;2023-04-09T04:52:49;12.53;;;10.30;;
39620;SDS011;25309;48.686;9.170;2023-04-09T04:55:18;12.33;;;10.00;;
39620;SDS011;25309;48.686;9.170;2023-04-09T04:57:45;13.50;;;10.93;;
39620;SDS011;25309;48.686;9.170;2023-04-09T05:00:13;12.90;;;10.50;;
39620;SDS011;25309;48.686;9.170;2023-04-09T05:02:40;14.00;;;10.93;;
39620;SDS011;25309;48.686;9.170;2023-04-09T05:05:16;14.73;;;11.77;;
39620;SDS011;25309;48.686;9.170;2023-04-09T05:07:50;13.50;;;10.77;;
39620;SDS011;25309;48.686;9.170;2023-04-09T05:10:18;12.10;;;10.20;;
39620;SDS011;25309;48.686;9.170;2023-04-09T05:12:46;13.03;;;10.10;;
39620;SDS011;25309;48.686;9.170;2023-04-09T05:15:20;13.30;;;10.80;;
39620;SDS011;25309;48.686;9.170;2023-04-09T05:17:48;13.47;;;11.40;;
39620;SDS011;25309;48.686;9.170;2023-04-09T05:20:16;15.27;;;10.60;;
39620;SDS011;25309;48.686;9.170;2023-04-09T05:22:55;12.73;;;10.50;;
39620;SDS011;25309;48.686;9.170;2023-04-09T05:25:29;12.67;;;10.27;;
39620;SDS011;25309;48.686;9.170;2023-04-09T05:27:58;13.13;;;10.70;;
39620;SDS011;25309;48.686;9.170;2023-04-09T05:30:26;12.87;;;10.50;;
39620;SDS011;25309;48.686;9.170;2023-04-09T05:32:55;14.37;;;10.67;;
39620;SDS011;25309;48.686;9.170;2023-04-09T05:35:24;13.20;;;10.00;;
39620;SDS011;25309;48.686;9.170;2023-04-09T05:37:51;13.83;;;10.80;;
39620;SDS011;25309;48.686;9.170;2023-04-09T05:40:20;14.33;;;11.37;;
39620;SDS011;25309;48.686;9.170;2023-04-09T05:42:49;13.23;;;10.80;;
39620;SDS011;25309;48.686;9.170;2023-04-09T05:45:34;14.43;;;11.17;;
39620;SDS011;25309;48.686;9.170;2023-04-09T05:48:01;13.63;;;10.27;;
39620;SDS011;25309;48.686;9.170;2023-04-09T05:50:29;12.13;;;10.43;;
39620;SDS011;25309;48.686;9.170;2023-04-09T05:53:04;12.63;;;10.57;;
39620;SDS011;25309;48.686;9.170;2023-04-09T05:55:38;13.83;;;10.73;;
39620;SDS011;25309;48.686;9.170;2023-04-09T05:58:05;15.63;;;10.80;;
39620;SDS011;25309;48.686;9.170;2023-04-09T06:00:32;11.53;;;9.83;;
39620;SDS011;25309;48.686;9.170;2023-04-09T06:03:01;13.53;;;10.37;;
39620;SDS011;25309;48.686;9.170;2023-04-09T06:05:28;13.37;;;10.30;;
39620;SDS011;25309;48.686;9.170;2023-04-09T06:07:55;12.80;;;10.17;;
39620;SDS011;25309;48.686;9.170;2023-04-09T06:10:22;11.90;;;10.13;;
39620;SDS011;25309;48.686;9.170;2023-04-09T06:12:51;11.90;;;10.50;;
39620;SDS011;25309;48.686;9.170;2023-04-09T06:15:18;12.30;;;9.80;;
39620;SDS011;25309;48.686;9.170;2023-04-09T06:17:45;11.20;;;8.97;;
39620;SDS011;25309;48.686;9.170;2023-04-09T06:20:12;12.33;;;9.60;;
39620;SDS011;25309;48.686;9.170;2023-04-09T06:22:39;13.13;;;9.73;;
39620;SDS011;25309;48.686;9.170;2023-04-09T06:25:06;14.30;;;10.70;;
39620;SDS011;25309;48.686;9.170;2023-04-09T06:27:33;13.20;;;10.17;;
39620;SDS011;25309;48.686;9.170;2023-04-09T06:30:02;12.73;;;9.90;;
39620;SDS011;25309;48.686;9.170;2023-04-09T06:32:29;13.23;;;10.50;;
39620;SDS011;25309;48.686;9.170;2023-04-09T06:35:03;12.10;;;9.83;;
39620;SDS011;25309;48.686;9.170;2023-04-09T06:37:31;11.73;;;9.40;;
39620;SDS011;25309;48.686;9.170;2023-04-09T06:39:57;13.40;;;10.20;;
39620;SDS011;25309;48.686;9.170;2023-04-09T06:42:27;13.63;;;10.33;;
39620;SDS011;25309;48.686;9.170;2023-04-09T06:45:03;12.93;;;10.03;;
39620;SDS011;25309;48.686;9.170;2023-04-09T06:47:34;12.53;;;10.00;;
39620;SDS011;25309;48.686;9.170;2023-04-09T06:50:01;12.53;;;9.93;;
39620;SDS011;25309;48.686;9.170;2023-04-09T06:52:29;12.93;;;10.13;;
39620;SDS011;25309;48.686;9.170;2023-04-09T06:54:56;12.13;;;9.80;;
39620;SDS011;25309;48.686;9.170;2023-04-09T06:57:23;13.97;;;10.63;;
39620;SDS011;25309;48.686;9.170;2023-04-09T06:59:49;12.93;;;10.03;;
39620;SDS011;25309;48.686;9.170;2023-04-09T07:02:18;12.90;;;10.00;;
39620;SDS011;25309;48.686;9.170;2023-04-09T07:04:45;12.53;;;9.97;;
39620;SDS011;25309;48.686;9.170;2023-04-09T07:07:13;13.53;;;10.40;;
39620;SDS011;25309;48.686;9.170;2023-04-09T07:09:39;13.37;;;10.70;;
39620;SDS011;25309;48.686;9.170;2023-04-09T07:12:07;12.73;;;10.27;;
39620;SDS011;25309;48.686;9.170;2023-04-09T07:14:34;13.43;;;10.87;;
39620;SDS011;25309;48.686;9.170;2023-04-09T07:17:01;13.73;;;10.30;;
39620;SDS011;25309;48.686;9.170;2023-04-09T07:19:29;13.23;;;10.00;;
39620;SDS011;25309;48.686;9.170;2023-04-09T07:21:56;12.63;;;9.67;;
39620;SDS011;25309;48.686;9.170;2023-04-09T07:24:23;12.73;;;10.23;;
39620;SDS011;25309;48.686;9.170;2023-04-09T07:26:50;13.50;;;10.13;;
39620;SDS011;25309;48.686;9.170;2023-04-09T07:29:18;12.57;;;10.20;;
39620;SDS011;25309;48.686;9.170;2023-04-09T07:31:46;14.10;;;10.27;;
39620;SDS011;25309;48.686;9.170;2023-04-09T07:34:13;12.97;;;10.23;;
39620;SDS011;25309;48.686;9.170;2023-04-09T07:36:41;13.10;;;10.43;;
39620;SDS011;25309;48.686;9.170;2023-04-09T07:39:08;12.70;;;10.20;;
39620;SDS011;25309;48.686;9.170;2023-04-09T07:41:35;12.70;;;9.37;;
39620;SDS011;25309;48.686;9.170;2023-04-09T07:44:02;12.40;;;9.20;;
39620;SDS011;25309;48.686;9.170;2023-04-09T07:46:31;10.93;;;9.20;;
39620;SDS011;25309;48.686;9.170;2023-04-09T07:48:58;12.07;;;9.33;;
39620;SDS011;25309;48.686;9.170;2023-04-09T07:51:25;10.00;;;7.73;;
39620;SDS011;25309;48.686;9.170;2023-04-09T07:53:54;10.23;;;7.93;;
39620;SDS011;25309;48.686;9.170;2023-04-09T07:56:21;9.87;;;7.73;;
39620;SDS011;25309;48.686;9.170;2023-04-09T07:58:48;9.73;;;7.73;;
39620;SDS011;25309;48.686;9.170;2023-04-09T08:01:16;10.07;;;7.77;;
39620;SDS011;25309;48.686;9.170;2023-04-09T08:03:43;9.93;;;8.13;;
39620;SDS011;25309;48.686;9.170;2023-04-09T08:06:11;8.50;;;6.67;;
39620;SDS011;25309;48.686;9.170;2023-04-09T08:08:37;9.30;;;7.10;;
39620;SDS011;25309;48.686;9.170;2023-04-09T08:11:06;9.40;;;7.10;;
39620;SDS011;25309;48.686;9.170;2023-04-09T08:13:33;9.03;;;7.03;;
39620;SDS011;25309;48.686;9.170;2023-04-09T08:16:00;7.87;;;6.17;;
39620;SDS011;25309;48.686;9.170;2023-04-09T08:18:27;8.93;;;7.67;;
39620;SDS011;25309;48.686;9.170;2023-04-09T08:20:55;10.63;;;8.73;;
39620;SDS011;25309;48.686;9.170;2023-04-09T08:23:22;9.50;;;7.87;;
39620;SDS011;25309;48.686;9.170;2023-04-09T08:25:49;11.30;;;8.13;;
39620;SDS011;25309;48.686;9.170;2023-04-09T08:28:17;8.97;;;7.60;;
39620;SDS011;25309;48.686;9.170;2023-04-09T08:30:44;9.97;;;8.10;;
39620;SDS011;25309;48.686;9.170;2023-04-09T08:33:12;10.03;;;8.17;;
39620;SDS011;25309;48.686;9.170;2023-04-09T08:35:40;8.47;;;6.97;;
39620;SDS011;25309;48.686;9.170;2023-04-09T08:38:07;8.97;;;7.23;;
39620;SDS011;25309;48.686;9.170;2023-04-09T08:40:34;10.20;;;8.70;;
39620;SDS011;25309;48.686;9.170;2023-04-09T08:43:03;8.33;;;7.23;;
39620;SDS011;25309;48.686;9.170;2023-04-09T08:45:33;9.27;;;8.20;;
39620;SDS011;25309;48.686;9.170;2023-04-09T08:48:01;10.03;;;8.60;;
39620;SDS011;25309;48.686;9.170;2023-04-09T08:50:29;8.67;;;7.40;;
39620;SDS011;25309;48.686;9.170;2023-04-09T08:52:56;8.63;;;7.03;;
39620;SDS011;25309;48.686;9.170;2023-04-09T08:55:24;9.73;;;8.73;;
39620;SDS011;25309;48.686;9.170;2023-04-09T08:57:51;9.20;;;7.70;;
39620;SDS011;25309;48.686;9.170;2023-04-09T09:00:18;8.33;;;7.40;;
39620;SDS011;25309;48.686;9.170;2023-04-09T09:03:02;8.33;;;7.43;;
39620;SDS011;25309;48.686;9.170;2023-04-09T09:05:36;8.47;;;7.57;;
39620;SDS011;25309;48.686;9.170;2023-04-09T09:08:05;8.80;;;7.90;;
39620;SDS011;25309;48.686;9.170;2023-04-09T09:10:36;6.47;;;5.77;;
39620;SDS011;25309;48.686;9.170;2023-04-09T09:13:15;6.97;;;6.27;;
39620;SDS011;25309;48.686;9.170;2023-04-09T09:15:42;7.50;;;6.80;;
39620;SDS011;25309;48.686;9.170;2023-04-09T09:18:12;9.47;;;8.57;;
39620;SDS011;25309;48.686;9.170;2023-04-09T09:20:39;8.33;;;7.53;;
39620;SDS011;25309;48.686;9.170;2023-04-09T09:23:06;7.90;;;7.10;;
39620;SDS011;25309;48.686;9.170;2023-04-09T09:25:36;7.47;;;6.77;;
39620;SDS011;25309;48.686;9.170;2023-04-09T09:28:07;7.10;;;6.40;;
39620;SDS011;25309;48.686;9.170;2023-04-09T09:30:35;8.40;;;7.60;;
39620;SDS011;25309;48.686;9.170;2023-04-09T09:33:05;8.30;;;7.50;;
39620;SDS011;25309;48.686;9.170;2023-04-09T09:35:46;8.87;;;7.97;;
39620;SDS011;25309;48.686;9.170;2023-04-09T09:38:14;8.17;;;7.37;;
39620;SDS011;25309;48.686;9.170;2023-04-09T09:40:42;9.03;;;8.13;;
39620;SDS011;25309;48.686;9.170;2023-04-09T09:43:09;7.90;;;7.10;;
39620;SDS011;25309;48.686;9.170;2023-04-09T09:45:40;7.17;;;6.47;;
39620;SDS011;25309;48.686;9.170;2023-04-09T09:48:09;7.87;;;7.07;;
39620;SDS011;25309;48.686;9.170;2023-04-09T09:50:38;7.43;;;6.73;;
39620;SDS011;25309;48.686;9.170;2023-04-09T09:53:10;7.27;;;6.57;;
39620;SDS011;25309;48.686;9.170;2023-04-09T09:55:38;8.40;;;7.60;;
39620;SDS011;25309;48.686;9.170;2023-04-09T09:58:07;6.90;;;6.20;;
39620;SDS011;25309;48.686;9.170;2023-04-09T10:00:38;7.10;;;6.40;;
39620;SDS011;25309;48.686;9.170;2023-04-09T10:03:13;7.00;;;6.30;;
39620;SDS011;25309;48.686;9.170;2023-04-09T10:05:45;6.43;;;5.83;;
39620;SDS011;25309;48.686;9.170;2023-04-09T10:08:16;6.77;;;6.07;;
39620;SDS011;25309;48.686;9.170;2023-04-09T10:10:43;6.67;;;5.97;;
39620;SDS011;25309;48.686;9.170;2023-04-09T10:13:12;6.20;;;5.60;;
39620;SDS011;25309;48.686;9.170;2023-04-09T10:15:46;7.40;;;6.50;;
39620;SDS011;25309;48.686;9.170;2023-04-09T10:18:14;6.33;;;5.67;;
39620;SDS011;25309;48.686;9.170;2023-04-09T10:20:42;6.47;;;5.80;;
39620;SDS011;25309;48.686;9.170;2023-04-09T10:23:26;6.10;;;5.50;;
39620;SDS011;25309;48.686;9.170;2023-04-09T10:25:59;7.47;;;6.23;;
39620;SDS011;25309;48.686;9.170;2023-04-09T10:28:26;6.80;;;5.53;;
39620;SDS011;25309;48.686;9.170;2023-04-09T10:30:53;7.10;;;6.40;;
39620;SDS011;25309;48.686;9.170;2023-04-09T10:33:21;5.77;;;5.17;;
39620;SDS011;25309;48.686;9.170;2023-04-09T10:35:52;5.03;;;4.53;;
39620;SDS011;25309;48.686;9.170;2023-04-09T10:38:35;6.10;;;5.10;;
39620;SDS011;25309;48.686;9.170;2023-04-09T10:41:06;5.33;;;4.83;;
39620;SDS011;25309;48.686;9.170;2023-04-09T10:43:35;4.93;;;4.40;;
39620;SDS011;25309;48.686;9.170;2023-04-09T10:46:03;4.77;;;4.27;;
39620;SDS011;25309;48.686;9.170;2023-04-09T10:48:33;5.50;;;5.00;;
39620;SDS011;25309;48.686;9.170;2023-04-09T10:51:01;5.20;;;4.57;;
39620;SDS011;25309;48.686;9.170;2023-04-09T10:53:31;5.43;;;4.90;;
39620;SDS011;25309;48.686;9.170;2023-04-09T10:55:59;4.93;;;4.47;;
39620;SDS011;25309;48.686;9.170;2023-04-09T10:58:26;5.33;;;4.60;;
39620;SDS011;25309;48.686;9.170;2023-04-09T11:00:53;5.33;;;4.60;;
39620;SDS011;25309;48.686;9.170;2023-04-09T11:03:23;4.97;;;4.47;;
39620;SDS011;25309;48.686;9.170;2023-04-09T11:05:56;5.17;;;4.67;;
39620;SDS011;25309;48.686;9.170;2023-04-09T11:08:27;6.20;;;4.40;;
39620;SDS011;25309;48.686;9.170;2023-04-09T11:10:55;5.40;;;4.70;;
39620;SDS011;25309;48.686;9.170;2023-04-09T11:13:26;4.37;;;3.73;;
39620;SDS011;25309;48.686;9.170;2023-04-09T11:15:54;5.33;;;4.83;;
39620;SDS011;25309;48.686;9.170;2023-04-09T11:18:22;5.40;;;4.47;;
39620;SDS011;25309;48.686;9.170;2023-04-09T11:20:52;5.67;;;4.73;;
39620;SDS011;25309;48.686;9.170;2023-04-09T11:23:20;5.10;;;4.60;;
39620;SDS011;25309;48.686;9.170;2023-04-09T11:25:48;4.53;;;4.07;;
39620;SDS011;25309;48.686;9.170;2023-04-09T11:28:16;4.10;;;3.70;;
39620;SDS011;25309;48.686;9.170;2023-04-09T11:30:45;5.03;;;4.33;;
39620;SDS011;25309;48.686;9.170;2023-04-09T11:33:12;4.80;;;4.30;;
39620;SDS011;25309;48.686;9.170;2023-04-09T11:35:39;4.67;;;4.13;;
39620;SDS011;25309;48.686;9.170;2023-04-09T11:38:06;4.50;;;4.10;;
39620;SDS011;25309;48.686;9.170;2023-04-09T11:40:34;4.70;;;4.30;;
39620;SDS011;25309;48.686;9.170;2023-04-09T11:43:02;4.80;;;4.30;;
39620;SDS011;25309;48.686;9.170;2023-04-09T11:45:29;4.80;;;4.30;;
39620;SDS011;25309;48.686;9.170;2023-04-09T11:47:59;4.60;;;4.00;;
39620;SDS011;25309;48.686;9.170;2023-04-09T11:50:28;4.07;;;3.60;;
39620;SDS011;25309;48.686;9.170;2023-04-09T11:52:55;4.50;;;4.10;;
39620;SDS011;25309;48.686;9.170;2023-04-09T11:55:22;4.70;;;3.90;;
39620;SDS011;25309;48.686;9.170;2023-04-09T11:57:50;4.37;;;3.90;;
39620;SDS011;25309;48.686;9.170;2023-04-09T12:00:19;4.40;;;3.97;;
39620;SDS011;25309;48.686;9.170;2023-04-09T12:02:47;4.97;;;4.47;;
39620;SDS011;25309;48.686;9.170;2023-04-09T12:05:26;5.10;;;4.60;;
39620;SDS011;25309;48.686;9.170;2023-04-09T12:07:56;5.27;;;4.77;;
39620;SDS011;25309;48.686;9.170;2023-04-09T12:10:25;5.33;;;4.83;;
39620;SDS011;25309;48.686;9.170;2023-04-09T12:12:53;5.00;;;4.50;;
39620;SDS011;25309;48.686;9.170;2023-04-09T12:15:21;4.93;;;4.43;;
39620;SDS011;25309;48.686;9.170;2023-04-09T12:17:49;4.67;;;4.20;;
39620;SDS011;25309;48.686;9.170;2023-04-09T12:20:26;5.00;;;4.50;;
39620;SDS011;25309;48.686;9.170;2023-04-09T12:22:55;4.97;;;4.47;;
39620;SDS011;25309;48.686;9.170;2023-04-09T12:25:22;5.43;;;4.90;;
39620;SDS011;25309;48.686;9.170;2023-04-09T12:27:49;5.20;;;4.60;;
39620;SDS011;25309;48.686;9.170;2023-04-09T12:30:16;5.70;;;5.10;;
39620;SDS011;25309;48.686;9.170;2023-04-09T12:32:43;5.37;;;4.87;;
39620;SDS011;25309;48.686;9.170;2023-04-09T12:35:12;4.47;;;4.07;;
39620;SDS011;25309;48.686;9.170;2023-04-09T12:37:41;4.60;;;4.20;;
39620;SDS011;25309;48.686;9.170;2023-04-09T12:40:09;4.67;;;4.27;;
39620;SDS011;25309;48.686;9.170;2023-04-09T12:42:39;5.17;;;4.67;;
39620;SDS011;25309;48.686;9.170;2023-04-09T12:45:07;4.70;;;4.30;;
39620;SDS011;25309;48.686;9.170;2023-04-09T12:47:34;5.03;;;4.53;;
39620;SDS011;25309;48.686;9.170;2023-04-09T12:50:02;4.87;;;4.33;;
39620;SDS011;25309;48.686;9.170;2023-04-09T12:52:29;4.77;;;4.03;;
39620;SDS011;25309;48.686;9.170;2023-04-09T12:54:57;4.57;;;4.07;;
39620;SDS011;25309;48.686;9.170;2023-04-09T12:57:24;4.77;;;4.27;;
39620;SDS011;25309;48.686;9.170;2023-04-09T12:59:51;5.20;;;4.50;;
39620;SDS011;25309;48.686;9.170;2023-04-09T13:02:18;4.27;;;3.87;;
39620;SDS011;25309;48.686;9.170;2023-04-09T13:04:47;4.63;;;4.13;;
39620;SDS011;25309;48.686;9.170;2023-04-09T13:07:14;5.17;;;4.30;;
39620;SDS011;25309;48.686;9.170;2023-04-09T13:09:44;6.10;;;4.93;;
39620;SDS011;25309;48.686;9.170;2023-04-09T13:12:12;5.10;;;4.37;;
39620;SDS011;25309;48.686;9.170;2023-04-09T13:14:42;5.20;;;4.03;;
39620;SDS011;25309;48.686;9.170;2023-04-09T13:17:10;4.63;;;4.10;;
39620;SDS011;25309;48.686;9.170;2023-04-09T13:19:37;4.67;;;4.17;;
39620;SDS011;25309;48.686;9.170;2023-04-09T13:22:07;4.77;;;4.27;;
39620;SDS011;25309;48.686;9.170;2023-04-09T13:24:34;5.23;;;4.40;;
39620;SDS011;25309;48.686;9.170;2023-04-09T13:27:01;8.20;;;4.60;;
39620;SDS011;25309;48.686;9.170;2023-04-09T13:29:30;4.77;;;4.27;;
39620;SDS011;25309;48.686;9.170;2023-04-09T13:31:57;4.27;;;3.70;;
39620;SDS011;25309;48.686;9.170;2023-04-09T13:34:24;4.30;;;3.90;;
39620;SDS011;25309;48.686;9.170;2023-04-09T13:36:51;4.47;;;3.90;;
39620;SDS011;25309;48.686;9.170;2023-04-09T13:39:18;4.37;;;3.90;;
39620;SDS011;25309;48.686;9.170;2023-04-09T13:41:45;4.60;;;4.10;;
39620;SDS011;25309;48.686;9.170;2023-04-09T13:44:12;5.13;;;4.50;;
39620;SDS011;25309;48.686;9.170;2023-04-09T13:46:40;4.60;;;3.93;;
39620;SDS011;25309;48.686;9.170;2023-04-09T13:49:07;4.97;;;4.03;;
39620;SDS011;25309;48.686;9.170;2023-04-09T13:51:34;4.67;;;3.87;;
39620;SDS011;25309;48.686;9.170;2023-04-09T13:54:01;4.40;;;4.00;;
39620;SDS011;25309;48.686;9.170;2023-04-09T13:56:31;4.30;;;3.90;;
39620;SDS011;25309;48.686;9.170;2023-04-09T13:58:58;5.67;;;4.57;;
39620;SDS011;25309;48.686;9.170;2023-04-09T14:01:25;4.70;;;4.17;;
39620;SDS011;25309;48.686;9.170;2023-04-09T14:03:54;5.33;;;4.67;;
39620;SDS011;25309;48.686;9.170;2023-04-09T14:06:22;4.60;;;4.03;;
39620;SDS011;25309;48.686;9.170;2023-04-09T14:08:49;4.97;;;4.47;;
39620;SDS011;25309;48.686;9.170;2023-04-09T14:11:16;4.30;;;3.83;;
39620;SDS011;25309;48.686;9.170;2023-04-09T14:13:43;4.00;;;3.57;;
39620;SDS011;25309;48.686;9.170;2023-04-09T14:16:10;5.67;;;4.20;;
39620;SDS011;25309;48.686;9.170;2023-04-09T14:18:37;5.10;;;4.10;;
39620;SDS011;25309;48.686;9.170;2023-04-09T14:21:06;4.63;;;4.10;;
39620;SDS011;25309;48.686;9.170;2023-04-09T14:23:35;5.00;;;4.33;;
39620;SDS011;25309;48.686;9.170;2023-04-09T14:26:03;5.27;;;4.40;;
39620;SDS011;25309;48.686;9.170;2023-04-09T14:28:31;4.47;;;3.63;;
39620;SDS011;25309;48.686;9.170;2023-04-09T14:30:58;4.47;;;3.97;;
39620;SDS011;25309;48.686;9.170;2023-04-09T14:33:25;4.60;;;3.93;;
39620;SDS011;25309;48.686;9.170;2023-04-09T14:35:52;5.63;;;4.37;;
39620;SDS011;25309;48.686;9.170;2023-04-09T14:38:21;5.00;;;4.17;;
39620;SDS011;25309;48.686;9.170;2023-04-09T14:40:49;5.33;;;4.27;;
39620;SDS011;25309;48.686;9.170;2023-04-09T14:43:16;5.00;;;4.27;;
39620;SDS011;25309;48.686;9.170;2023-04-09T14:45:43;4.93;;;4.10;;
39620;SDS011;25309;48.686;9.170;2023-04-09T14:48:10;5.57;;;4.40;;
39620;SDS011;25309;48.686;9.170;2023-04-09T14:50:37;5.37;;;4.63;;
39620;SDS011;25309;48.686;9.170;2023-04-09T14:53:04;5.17;;;4.67;;
39620;SDS011;25309;48.686;9.170;2023-04-09T14:55:32;5.03;;;4.53;;
39620;SDS011;25309;48.686;9.170;2023-04-09T14:57:59;6.17;;;4.70;;
39620;SDS011;25309;48.686;9.170;2023-04-09T15:00:29;5.97;;;4.60;;
39620;SDS011;25309;48.686;9.170;2023-04-09T15:02:57;5.03;;;4.27;;
39620;SDS011;25309;48.686;9.170;2023-04-09T15:05:24;6.33;;;4.67;;
39620;SDS011;25309;48.686;9.170;2023-04-09T15:07:52;5.40;;;4.40;;
39620;SDS011;25309;48.686;9.170;2023-04-09T15:10:19;5.67;;;4.70;;
39620;SDS011;25309;48.686;9.170;2023-04-09T15:12:48;5.33;;;4.60;;
39620;SDS011;25309;48.686;9.170;2023-04-09T15:15:15;5.60;;;4.70;;
39620;SDS011;25309;48.686;9.170;2023-04-09T15:17:42;5.57;;;4.57;;
39620;SDS011;25309;48.686;9.170;2023-04-09T15:20:09;6.17;;;5.20;;
39620;SDS011;25309;48.686;9.170;2023-04-09T15:22:36;5.30;;;4.50;;
39620;SDS011;25309;48.686;9.170;2023-04-09T15:25:04;6.03;;;4.90;;
39620;SDS011;25309;48.686;9.170;2023-04-09T15:27:31;5.67;;;4.67;;
39620;SDS011;25309;48.686;9.170;2023-04-09T15:29:59;6.07;;;5.03;;
39620;SDS011;25309;48.686;9.170;2023-04-09T15:32:27;6.03;;;4.90;;
39620;SDS011;25309;48.686;9.170;2023-04-09T15:34:55;6.27;;;4.80;;
39620;SDS011;25309;48.686;9.170;2023-04-09T15:37:22;5.57;;;4.57;;
39620;SDS011;25309;48.686;9.170;2023-04-09T15:39:49;5.30;;;4.33;;
39620;SDS011;25309;48.686;9.170;2023-04-09T15:42:15;5.83;;;5.00;;
39620;SDS011;25309;48.686;9.170;2023-04-09T15:44:47;5.53;;;4.53;;
39620;SDS011;25309;48.686;9.170;2023-04-09T15:47:16;5.13;;;4.40;;
39620;SDS011;25309;48.686;9.170;2023-04-09T15:49:43;6.30;;;4.50;;
39620;SDS011;25309;48.686;9.170;2023-04-09T15:52:10;5.63;;;4.70;;
39620;SDS011;25309;48.686;9.170;2023-04-09T15:54:37;5.70;;;4.63;;
39620;SDS011;25309;48.686;9.170;2023-04-09T15:57:04;5.40;;;4.20;;
39620;SDS011;25309;48.686;9.170;2023-04-09T15:59:30;5.17;;;3.93;;
39620;SDS011;25309;48.686;9.170;2023-04-09T16:01:57;4.73;;;4.23;;
39620;SDS011;25309;48.686;9.170;2023-04-09T16:04:26;5.07;;;4.40;;
39620;SDS011;25309;48.686;9.170;2023-04-09T16:06:53;5.10;;;4.10;;
39620;SDS011;25309;48.686;9.170;2023-04-09T16:09:21;5.40;;;4.40;;
39620;SDS011;25309;48.686;9.170;2023-04-09T16:11:48;5.27;;;4.50;;
39620;SDS011;25309;48.686;9.170;2023-04-09T16:14:16;6.13;;;4.70;;
39620;SDS011;25309;48.686;9.170;2023-04-09T16:16:43;5.77;;;5.00;;
39620;SDS011;25309;48.686;9.170;2023-04-09T16:19:15;4.70;;;4.10;;
39620;SDS011;25309;48.686;9.170;2023-04-09T16:21:44;5.97;;;4.70;;
39620;SDS011;25309;48.686;9.170;2023-04-09T16:24:11;5.33;;;4.30;;
39620;SDS011;25309;48.686;9.170;2023-04-09T16:26:38;6.50;;;4.60;;
39620;SDS011;25309;48.686;9.170;2023-04-09T16:29:06;5.40;;;4.40;;
39620;SDS011;25309;48.686;9.170;2023-04-09T16:31:34;5.93;;;4.57;;
39620;SDS011;25309;48.686;9.170;2023-04-09T16:34:01;5.20;;;4.23;;
39620;SDS011;25309;48.686;9.170;2023-04-09T16:36:29;5.80;;;4.73;;
39620;SDS011;25309;48.686;9.170;2023-04-09T16:38:59;6.77;;;4.90;;
39620;SDS011;25309;48.686;9.170;2023-04-09T16:41:26;6.10;;;4.47;;
39620;SDS011;25309;48.686;9.170;2023-04-09T16:43:53;5.43;;;4.37;;
39620;SDS011;25309;48.686;9.170;2023-04-09T16:46:20;6.13;;;4.87;;
39620;SDS011;25309;48.686;9.170;2023-04-09T16:48:47;5.43;;;4.27;;
39620;SDS011;25309;48.686;9.170;2023-04-09T16:51:14;5.10;;;4.53;;
39620;SDS011;25309;48.686;9.170;2023-04-09T16:53:42;5.83;;;5.00;;
39620;SDS011;25309;48.686;9.170;2023-04-09T16:56:10;6.03;;;4.73;;
39620;SDS011;25309;48.686;9.170;2023-04-09T16:58:37;5.77;;;4.67;;
39620;SDS011;25309;48.686;9.170;2023-04-09T17:01:04;6.37;;;4.87;;
39620;SDS011;25309;48.686;9.170;2023-04-09T17:03:31;5.87;;;4.33;;
39620;SDS011;25309;48.686;9.170;2023-04-09T17:05:58;5.47;;;4.40;;
39620;SDS011;25309;48.686;9.170;2023-04-09T17:08:25;5.77;;;4.60;;
39620;SDS011;25309;48.686;9.170;2023-04-09T17:10:52;5.37;;;4.63;;
39620;SDS011;25309;48.686;9.170;2023-04-09T17:13:28;4.93;;;3.73;;
39620;SDS011;25309;48.686;9.170;2023-04-09T17:15:56;5.70;;;4.40;;
39620;SDS011;25309;48.686;9.170;2023-04-09T17:18:23;5.27;;;4.40;;
39620;SDS011;25309;48.686;9.170;2023-04-09T17:20:50;6.10;;;4.50;;
39620;SDS011;25309;48.686;9.170;2023-04-09T17:23:17;5.43;;;4.43;;
39620;SDS011;25309;48.686;9.170;2023-04-09T17:25:44;5.93;;;4.63;;
39620;SDS011;25309;48.686;9.170;2023-04-09T17:28:12;5.80;;;4.53;;
39620;SDS011;25309;48.686;9.170;2023-04-09T17:30:41;5.80;;;4.50;;
39620;SDS011;25309;48.686;9.170;2023-04-09T17:33:08;6.10;;;4.20;;
39620;SDS011;25309;48.686;9.170;2023-04-09T17:35:35;6.13;;;3.97;;
39620;SDS011;25309;48.686;9.170;2023-04-09T17:38:02;5.00;;;4.27;;
39620;SDS011;25309;48.686;9.170;2023-04-09T17:40:29;5.67;;;4.57;;
39620;SDS011;25309;48.686;9.170;2023-04-09T17:42:56;5.20;;;4.30;;
39620;SDS011;25309;48.686;9.170;2023-04-09T17:45:23;5.07;;;4.23;;
39620;SDS011;25309;48.686;9.170;2023-04-09T17:47:51;5.20;;;4.10;;
39620;SDS011;25309;48.686;9.170;2023-04-09T17:50:18;5.57;;;4.27;;